• Join FlightAware (Why Join?)
  • Login
  • US Flag 
Rudolph Flight #1: Arrived! 
11:10PM EST


 

Airport Tracker/Info


-or-


 

Live Flight TrackerFlight Track Log ✈ N27XP ✈ 20-May-2013 ✈ KMKC - KRDU

Flight Track Log - Related Links

Times and Time Zones

All times are in EDT time to prevent confusion due to time zone crossing. See the N27XP flight status page for this flight to view local times or setup timezone preferences in your user account.

Time Position Orientation Groundspeed Altitude Reporting Facility
EDT Latitude Longitude Course Direction KTS MPH feet Rate Location/Type
01:27PM 39.1167 -94.6000 202° Southwest 143 165 1,400  Level Kansas City TRACON
01:29PM 39.0644 -94.6269 202° Southwest 192 221 3,800 2,340 Climbing Kansas City Center
01:30PM 39.0431 -94.5392 107° East 258 297 6,800 2,700 Climbing Kansas City Center
01:31PM 39.0542 -94.4450 81° East 276 318 9,400 2,220 Climbing Kansas City Center
01:32PM 39.0686 -94.3253 81° East 306 352 11,500 1,980 Climbing Kansas City Center
01:33PM 39.0842 -94.2117 80° East 333 383 13,600 1,860 Climbing Kansas City Center
01:34PM 39.0925 -94.0711 86° East 357 411 15,400 1,500 Climbing Kansas City Center
01:35PM 39.0836 -93.9442 95° East 371 427 16,800 1,380 Climbing Kansas City Center
01:36PM 39.0736 -93.8078 95° East 397 457 18,300 1,500 Climbing Kansas City Center
01:37PM 39.0631 -93.6478 95° East 403 464 19,900 1,320 Climbing Kansas City Center
01:38PM 39.0550 -93.5064 94° East 413 475 21,100 1,200 Climbing Kansas City Center
01:39PM 39.0442 -93.3506 95° East 418 481 22,400 1,200 Climbing Kansas City Center
01:40PM 39.0339 -93.1956 95° East 426 490 23,600 1,200 Climbing Kansas City Center
01:41PM 39.0233 -93.0433 95° East 432 497 25,000 1,260 Climbing Kansas City Center
01:42PM 39.0081 -92.8600 96° East 433 498 26,300 1,200 Climbing Kansas City Center
01:43PM 38.9694 -92.7075 108° East 423 487 27,500 1,140 Climbing Kansas City Center
01:44PM 38.9228 -92.5692 113° Southeast 420 483 28,700 1,140 Climbing Kansas City Center
01:45PM 38.8819 -92.4311 111° Southeast 415 478 29,900 1,020 Climbing Kansas City Center
01:46PM 38.8761 -92.2769 93° East 428 493 30,900 960 Climbing Kansas City Center
01:47PM 38.8761 -92.1225 90° East 430 495 32,000 1,080 Climbing Kansas City Center
01:48PM 38.8753 -91.9706 90° East 427 491 33,200 960 Climbing Kansas City Center
01:49PM 38.8744 -91.8211 90° East 420 483 34,100 780 Climbing Kansas City Center
01:50PM 38.8728 -91.6683 91° East 421 484 34,900 720 Climbing Kansas City Center
01:51PM 38.8731 -91.4853 90° East 426 490 35,700 660 Climbing Kansas City Center
01:52PM 38.8717 -91.3314 91° East 429 494 36,300 600 Climbing Kansas City Center
01:53PM 38.8700 -91.1769 91° East 431 496 37,000 300 Climbing Kansas City Center
01:54PM 38.8683 -91.0222 91° East 433 498 37,000  Level Kansas City Center
01:55PM 38.8664 -90.8658 91° East 435 501 37,000  Level Kansas City Center
01:56PM 38.8644 -90.7094 91° East 437 503 37,000  Level Kansas City Center
01:57PM 38.8611 -90.5528 92° East 434 499 37,000  Level Kansas City Center
01:58PM 38.8478 -90.3711 95° East 428 493 37,000  Level Kansas City Center
01:59PM 38.8242 -90.2194 101° East 425 489 37,000  Level Kansas City Center
02:01PM 38.8050 -90.0694 99° East 425 489 37,000  Level Kansas City Center
02:02PM 38.7844 -89.9131 100° East 431 496 37,000  Level Kansas City Center
02:03PM 38.7631 -89.7664 101° East 425 489 37,000  Level Kansas City Center
02:04PM 38.7431 -89.6089 99° East 416 479 37,000  Level Kansas City Center
02:05PM 38.7217 -89.4617 101° East 418 481 37,000  Level Kansas City Center
02:06PM 38.6992 -89.3028 100° East 420 483 37,000  Level Kansas City Center
02:07PM 38.6781 -89.1550 100° East 422 486 37,000  Level Kansas City Center
02:08PM 38.6558 -89.0078 101° East 422 486 37,000  Level Kansas City Center
02:09PM 38.6361 -88.8564 99° East 420 483 37,000  Level Kansas City Center
02:10PM 38.6136 -88.7094 101° East 423 487 37,000  Level Kansas City Center
02:11PM 38.5894 -88.5467 101° East 425 489 37,000  Level Kansas City Center
02:12PM 38.5675 -88.3989 101° East 423 487 37,000  Level Kansas City Center
02:13PM 38.5472 -88.2814 102° East 424 488 37,000  Level Indianapolis Center
02:14PM 38.5250 -88.1333 101° East 425 489 37,000  Level Indianapolis Center
02:15PM 38.5019 -87.9839 101° East 428 493 37,000  Level Indianapolis Center
02:16PM 38.4781 -87.8344 101° East 427 491 37,000  Level Indianapolis Center
02:17PM 38.4606 -87.6842 98° East 427 491 37,000  Level Indianapolis Center
02:18PM 38.4494 -87.5319 95° East 428 493 37,000  Level Indianapolis Center
02:19PM 38.4478 -87.3508 91° East 422 486 37,000  Level Indianapolis Center
02:20PM 38.4564 -87.1967 86° East 427 491 37,000  Level Indianapolis Center
02:21PM 38.4508 -87.0403 93° East 427 491 37,000  Level Indianapolis Center
02:22PM 38.4364 -86.8853 97° East 428 493 37,000  Level Indianapolis Center
02:23PM 38.4222 -86.7311 97° East 431 496 37,000  Level Indianapolis Center
02:24PM 38.4083 -86.5778 97° East 433 498 37,000  Level Indianapolis Center
02:25PM 38.3939 -86.4244 97° East 434 499 37,000  Level Indianapolis Center
02:26PM 38.3794 -86.2728 97° East 432 497 37,000  Level Indianapolis Center
02:27PM 38.3644 -86.1181 97° East 435 501 37,000  Level Indianapolis Center
02:28PM 38.3503 -85.9633 97° East 438 504 37,000  Level Indianapolis Center
02:29PM 38.3322 -85.7772 97° East 439 505 37,000  Level Indianapolis Center
02:30PM 38.3169 -85.6225 97° East 440 506 37,000  Level Indianapolis Center
02:31PM 38.3017 -85.4683 97° East 440 506 37,000  Level Indianapolis Center
02:32PM 38.2850 -85.3131 98° East 441 507 37,000  Level Indianapolis Center
02:33PM 38.2600 -85.1639 102° East 436 502 37,000  Level Indianapolis Center
02:34PM 38.2367 -85.0097 101° East 440 506 37,000  Level Indianapolis Center
02:35PM 38.2097 -84.8328 101° East 436 502 37,000  Level Indianapolis Center
02:36PM 38.1847 -84.6819 102° East 434 499 37,000  Level Indianapolis Center
02:37PM 38.1606 -84.5292 101° East 438 504 37,000  Level Indianapolis Center
02:38PM 38.1361 -84.3767 101° East 438 504 37,000  Level Indianapolis Center
02:40PM 38.1103 -84.2258 102° East 437 503 37,000  Level Indianapolis Center
02:41PM 38.0853 -84.0728 102° East 438 504 37,000  Level Indianapolis Center
02:42PM 38.0556 -83.8961 102° East 439 505 37,000  Level Indianapolis Center
02:43PM 38.0317 -83.7411 101° East 442 509 37,000  Level Indianapolis Center
02:44PM 38.0050 -83.5889 102° East 443 510 37,000  Level Indianapolis Center
02:45PM 37.9778 -83.4400 103° East 435 501 37,000  Level Indianapolis Center
02:46PM 37.9517 -83.2886 102° East 436 502 37,000  Level Indianapolis Center
02:47PM 37.9267 -83.1431 102° East 426 490 37,000  Level Indianapolis Center
02:48PM 37.8969 -82.9728 102° East 422 486 37,000  Level Indianapolis Center
02:49PM 37.8708 -82.8267 103° East 423 487 37,000  Level Indianapolis Center
02:51PM 37.8189 -82.5372 103° East 426 490 37,000 -180 Level Indianapolis Center
02:52PM 37.7911 -82.3872 103° East 433 498 36,500 -780 Descending Indianapolis Center
02:53PM 37.7644 -82.2419 103° East 426 490 35,400 -1,200 Descending Indianapolis Center
02:54PM 37.7392 -82.0994 103° East 417 480 34,100 -1,500 Descending Indianapolis Center
02:55PM 37.7067 -81.9319 104° East 418 481 32,400 -1,560 Descending Indianapolis Center
02:56PM 37.6803 -81.7892 103° East 417 480 30,900 -1,500 Descending Indianapolis Center
02:57PM 37.6542 -81.6486 103° East 414 476 29,400 -960 Descending Indianapolis Center
02:58PM 37.6264 -81.5017 103° East 426 490 29,000 -240 Descending Indianapolis Center
02:59PM 37.5953 -81.3389 104° East 426 490 29,000  Level Indianapolis Center
03:00PM 37.5672 -81.1956 104° East 432 497 29,000  Level Indianapolis Center
03:01PM 37.5392 -81.0522 104° East 434 499 29,000  Level Indianapolis Center
03:02PM 37.5111 -80.9078 104° East 435 501 29,000  Level Indianapolis Center
03:03PM 37.4786 -80.7450 104° East 412 474 29,000  Level Indianapolis Center
03:04PM 37.4522 -80.6122 104° East 405 466 29,000  Level Indianapolis Center
03:05PM 37.4406 -80.5567 105° East 408 470 29,000  Level Washington Center
03:06PM 37.4161 -80.4372 104° East 397 457 29,000  Level Washington Center
03:07PM 37.4597 -80.2192 76° East 388 447 29,000  Level Indianapolis Center
03:08PM 37.5569 -80.2561 343° North 394 453 29,000  Level Indianapolis Center
03:09PM 37.5514 -80.3989 267° West 388 447 29,000  Level Indianapolis Center
03:11PM 37.4525 -80.4125 186° South 391 450 29,100 -60 Climbing Indianapolis Center
03:12PM 37.3725 -80.3286 140° Southeast 390 449 28,900 -660 Descending Indianapolis Center
03:13PM 37.2878 -80.2122 132° Southeast 389 448 27,800 -960 Descending Indianapolis Center
03:14PM 37.2211 -80.1131 130° Southeast 386 444 27,000 -1,320 Descending Indianapolis Center
03:15PM 37.1617 -80.0067 125° Southeast 376 433 25,100 -1,500 Descending Washington Center
03:16PM 37.1017 -79.8808 121° Southeast 388 447 24,000 -600 Descending Washington Center
03:17PM 37.0472 -79.7686 121° Southeast 382 440 23,900 -960 Descending Washington Center
03:18PM 36.9925 -79.6564 121° Southeast 377 434 22,100 -2,280 Descending Washington Center
03:19PM 36.9586 -79.5531 112° Southeast 371 427 19,500 -2,520 Descending Washington Center
03:20PM 36.9456 -79.4381 98° East 350 403 17,200 -2,220 Descending Washington Center
03:21PM 36.8814 -79.3544 134° Southeast 325 374 15,000 -1,140 Descending Washington Center
03:22PM 36.8083 -79.2861 143° Southeast 319 367 15,000 -300 Level Washington Center
03:23PM 36.7250 -79.2147 146° Southeast 325 374 14,500 -1,440 Descending Washington Center
03:24PM 36.6519 -79.1492 144° Southeast 325 374 12,100 -2,220 Descending Washington Center
03:25PM 36.5844 -79.1072 153° Southeast 315 362 10,000 -1,740 Descending Washington Center
03:26PM 36.5214 -79.0528 145° Southeast 298 343 8,700 -1,440 Descending Washington Center
03:26PM 36.4803 -79.0250 151° Southeast 273 314 8,000 -840 Descending Washington Center
03:27PM 36.4517 -79.0058 152° Southeast 284 327 7,900  Descending Washington Center
03:27PM 36.4272 -78.9892 151° Southeast 279 321 8,000 60 Climbing Washington Center
03:28PM 36.3886 -78.9514 142° Southeast 284 327 8,000  Level Washington Center
03:28PM 36.3647 -78.9064 123° Southeast 273 314 8,000  Level Washington Center
03:29PM 36.3386 -78.8692 131° Southeast 272 313 8,000  Level Washington Center
03:29PM 36.3103 -78.8422 143° Southeast 268 308 8,000 -540 Level Washington Center
03:30PM 36.2878 -78.8208 143° Southeast 266 306 7,500 -1,620 Descending Washington Center
03:30PM 36.2553 -78.7911 144° Southeast 254 292 6,400 -1,500 Descending Washington Center
03:31PM 36.2308 -78.7644 139° Southeast 261 300 6,000 -420 Descending Washington Center
03:31PM 36.2006 -78.7297 137° Southeast 261 300 6,000 -240 Level Washington Center
03:32PM 36.1742 -78.6953 133° Southeast 261 300 5,800 -1,200 Descending Washington Center
03:32PM 36.1522 -78.6661 133° Southeast 258 297 4,800 -1,860 Descending Washington Center
03:33PM 36.1275 -78.6444 145° Southeast 256 295 3,900 -1,800 Descending Washington Center
03:33PM 36.0861 -78.6325 167° South 256 295 3,000 -900 Descending Washington Center
03:34PM 36.0614 -78.6214 160° South 248 285 3,000 -840 Level Washington Center
03:34PM 36.0236 -78.6328 194° South 204 235 2,200 -900 Descending Washington Center
03:35PM 36.0067 -78.6425 205° Southwest 219 252 2,100  Descending Washington Center
03:35PM 35.9808 -78.6722 223° Southwest 182 209 2,200 60 Climbing Washington Center
03:36PM 35.9700 -78.6847 223° Southwest 185 213 2,200 -240 Level Washington Center
03:36PM 35.9550 -78.7044 227° Southwest 165 190 2,000 -660 Descending Washington Center
03:37PM 35.9206 -78.7467 225° Southwest 132 152 1,200 -720 Descending Washington Center
03:38PM 35.8967 -78.7767 225° Southwest 113 130 500 -720 Descending Washington Center
03:40PM 35.8776 -78.7875 219° Southwest  Level Estimated
03:47PM 35.8776 -78.7875 219° Southwest  Level Estimated